sensor_id;sensor_type;location;lat;lon;timestamp;pressure;altitude;pressure_sealevel;temperature;humidity
26719;BME280;14326;50.794;6.060;2022-09-09T00:00:56;98905.53;;;15.77;100.00
26719;BME280;14326;50.794;6.060;2022-09-09T00:03:27;98903.81;;;15.75;100.00
26719;BME280;14326;50.794;6.060;2022-09-09T00:06:02;98898.59;;;15.67;100.00
26719;BME280;14326;50.794;6.060;2022-09-09T00:08:42;98896.88;;;15.66;100.00
26719;BME280;14326;50.794;6.060;2022-09-09T00:11:13;98895.94;;;15.67;100.00
26719;BME280;14326;50.794;6.060;2022-09-09T00:13:46;98903.13;;;15.67;100.00
26719;BME280;14326;50.794;6.060;2022-09-09T00:16:17;98893.19;;;15.70;100.00
26719;BME280;14326;50.794;6.060;2022-09-09T00:18:54;98895.84;;;15.72;100.00
26719;BME280;14326;50.794;6.060;2022-09-09T00:21:26;98896.00;;;15.66;100.00
26719;BME280;14326;50.794;6.060;2022-09-09T00:24:00;98896.91;;;15.65;100.00
26719;BME280;14326;50.794;6.060;2022-09-09T00:26:32;98887.94;;;15.66;100.00
26719;BME280;14326;50.794;6.060;2022-09-09T00:29:20;98893.31;;;15.66;100.00
26719;BME280;14326;50.794;6.060;2022-09-09T00:31:51;98886.09;;;15.68;100.00
26719;BME280;14326;50.794;6.060;2022-09-09T00:34:22;98896.94;;;15.62;100.00
26719;BME280;14326;50.794;6.060;2022-09-09T00:36:52;98891.59;;;15.62;100.00
26719;BME280;14326;50.794;6.060;2022-09-09T00:39:25;98890.69;;;15.63;100.00
26719;BME280;14326;50.794;6.060;2022-09-09T00:42:05;98883.50;;;15.63;100.00
26719;BME280;14326;50.794;6.060;2022-09-09T00:44:38;98883.50;;;15.65;100.00
26719;BME280;14326;50.794;6.060;2022-09-09T00:47:12;98884.38;;;15.65;100.00
26719;BME280;14326;50.794;6.060;2022-09-09T00:49:53;98882.59;;;15.66;100.00
26719;BME280;14326;50.794;6.060;2022-09-09T00:52:33;98884.25;;;15.70;100.00
26719;BME280;14326;50.794;6.060;2022-09-09T00:55:07;98891.53;;;15.65;100.00
26719;BME280;14326;50.794;6.060;2022-09-09T00:57:37;98882.63;;;15.63;100.00
26719;BME280;14326;50.794;6.060;2022-09-09T01:00:19;98884.50;;;15.61;100.00
26719;BME280;14326;50.794;6.060;2022-09-09T01:02:53;98890.69;;;15.61;100.00
26719;BME280;14326;50.794;6.060;2022-09-09T01:05:29;98890.69;;;15.63;100.00
26719;BME280;14326;50.794;6.060;2022-09-09T01:07:57;98891.53;;;15.65;100.00
26719;BME280;14326;50.794;6.060;2022-09-09T01:10:30;98901.38;;;15.64;100.00
26719;BME280;14326;50.794;6.060;2022-09-09T01:13:03;98892.53;;;15.61;100.00
26719;BME280;14326;50.794;6.060;2022-09-09T01:15:31;98886.19;;;15.65;100.00
26719;BME280;14326;50.794;6.060;2022-09-09T01:18:02;98891.53;;;15.65;100.00
26719;BME280;14326;50.794;6.060;2022-09-09T01:20:39;98886.22;;;15.62;100.00
26719;BME280;14326;50.794;6.060;2022-09-09T01:23:21;98894.22;;;15.65;100.00
26719;BME280;14326;50.794;6.060;2022-09-09T01:26:20;98892.41;;;15.65;100.00
26719;BME280;14326;50.794;6.060;2022-09-09T01:28:50;98891.41;;;15.71;100.00
26719;BME280;14326;50.794;6.060;2022-09-09T01:31:20;98894.03;;;15.72;100.00
26719;BME280;14326;50.794;6.060;2022-09-09T01:33:48;98882.44;;;15.72;100.00
26719;BME280;14326;50.794;6.060;2022-09-09T01:36:20;98886.81;;;15.74;100.00
26719;BME280;14326;50.794;6.060;2022-09-09T01:38:47;98887.66;;;15.78;100.00
26719;BME280;14326;50.794;6.060;2022-09-09T01:41:14;98884.84;;;15.84;100.00
26719;BME280;14326;50.794;6.060;2022-09-09T01:43:42;98880.22;;;15.89;100.00
26719;BME280;14326;50.794;6.060;2022-09-09T01:46:09;98881.13;;;15.89;100.00
26719;BME280;14326;50.794;6.060;2022-09-09T01:48:38;98891.84;;;15.89;100.00
26719;BME280;14326;50.794;6.060;2022-09-09T01:51:07;98889.09;;;15.91;100.00
26719;BME280;14326;50.794;6.060;2022-09-09T01:53:33;98879.25;;;15.91;100.00
26719;BME280;14326;50.794;6.060;2022-09-09T01:56:11;98870.31;;;15.92;100.00
26719;BME280;14326;50.794;6.060;2022-09-09T01:58:51;98885.44;;;15.95;100.00
26719;BME280;14326;50.794;6.060;2022-09-09T02:01:32;98883.59;;;15.97;100.00
26719;BME280;14326;50.794;6.060;2022-09-09T02:04:20;98875.59;;;15.95;100.00
26719;BME280;14326;50.794;6.060;2022-09-09T02:06:50;98868.47;;;15.94;100.00
26719;BME280;14326;50.794;6.060;2022-09-09T02:09:22;98881.88;;;15.94;100.00
26719;BME280;14326;50.794;6.060;2022-09-09T02:11:52;98878.19;;;15.98;100.00
26719;BME280;14326;50.794;6.060;2022-09-09T02:14:26;98873.69;;;16.01;100.00
26719;BME280;14326;50.794;6.060;2022-09-09T02:16:56;98875.47;;;16.02;100.00
26719;BME280;14326;50.794;6.060;2022-09-09T02:19:25;98867.44;;;16.00;100.00
26719;BME280;14326;50.794;6.060;2022-09-09T02:21:56;98870.91;;;16.04;100.00
26719;BME280;14326;50.794;6.060;2022-09-09T02:24:25;98862.88;;;16.04;100.00
26719;BME280;14326;50.794;6.060;2022-09-09T02:26:54;98865.63;;;16.02;100.00
26719;BME280;14326;50.794;6.060;2022-09-09T02:29:26;98865.53;;;16.05;100.00
26719;BME280;14326;50.794;6.060;2022-09-09T02:31:56;98853.88;;;16.06;100.00
26719;BME280;14326;50.794;6.060;2022-09-09T02:34:25;98860.16;;;16.05;100.00
26719;BME280;14326;50.794;6.060;2022-09-09T02:36:54;98867.28;;;16.06;100.00
26719;BME280;14326;50.794;6.060;2022-09-09T02:39:23;98860.28;;;16.01;100.00
26719;BME280;14326;50.794;6.060;2022-09-09T02:41:50;98849.53;;;16.01;100.00
26719;BME280;14326;50.794;6.060;2022-09-09T02:44:18;98861.16;;;16.01;100.00
26719;BME280;14326;50.794;6.060;2022-09-09T02:46:58;98859.41;;;16.00;100.00
26719;BME280;14326;50.794;6.060;2022-09-09T02:49:31;98857.59;;;16.01;100.00
26719;BME280;14326;50.794;6.060;2022-09-09T02:52:06;98858.47;;;16.01;100.00
26719;BME280;14326;50.794;6.060;2022-09-09T02:54:33;98865.53;;;16.05;100.00
26719;BME280;14326;50.794;6.060;2022-09-09T02:57:03;98865.44;;;16.08;100.00
26719;BME280;14326;50.794;6.060;2022-09-09T02:59:32;98861.91;;;16.08;100.00
26719;BME280;14326;50.794;6.060;2022-09-09T03:02:01;98864.63;;;16.05;100.00
26719;BME280;14326;50.794;6.060;2022-09-09T03:04:28;98860.25;;;16.02;100.00
26719;BME280;14326;50.794;6.060;2022-09-09T03:06:55;98866.44;;;16.04;100.00
26719;BME280;14326;50.794;6.060;2022-09-09T03:09:22;98856.63;;;16.03;100.00
26719;BME280;14326;50.794;6.060;2022-09-09T03:11:48;98866.41;;;16.06;100.00
26719;BME280;14326;50.794;6.060;2022-09-09T03:14:17;98864.56;;;16.08;100.00
26719;BME280;14326;50.794;6.060;2022-09-09T03:16:49;98868.97;;;16.10;100.00
26719;BME280;14326;50.794;6.060;2022-09-09T03:19:18;98860.94;;;16.09;100.00
26719;BME280;14326;50.794;6.060;2022-09-09T03:21:45;98869.81;;;16.12;100.00
26719;BME280;14326;50.794;6.060;2022-09-09T03:24:12;98855.53;;;16.12;100.00
26719;BME280;14326;50.794;6.060;2022-09-09T03:26:39;98860.03;;;16.10;100.00
26719;BME280;14326;50.794;6.060;2022-09-09T03:29:07;98858.34;;;16.06;100.00
26719;BME280;14326;50.794;6.060;2022-09-09T03:31:33;98860.16;;;16.05;100.00
26719;BME280;14326;50.794;6.060;2022-09-09T03:34:01;98859.38;;;16.02;100.00
26719;BME280;14326;50.794;6.060;2022-09-09T03:36:29;98854.00;;;16.02;100.00
26719;BME280;14326;50.794;6.060;2022-09-09T03:38:55;98865.63;;;16.02;100.00
26719;BME280;14326;50.794;6.060;2022-09-09T03:41:23;98864.72;;;16.02;100.00
26719;BME280;14326;50.794;6.060;2022-09-09T03:43:51;98869.22;;;16.01;100.00
26719;BME280;14326;50.794;6.060;2022-09-09T03:46:19;98863.84;;;16.01;100.00
26719;BME280;14326;50.794;6.060;2022-09-09T03:48:46;98856.72;;;16.00;100.00
26719;BME280;14326;50.794;6.060;2022-09-09T03:51:13;98866.59;;;15.98;100.00
26719;BME280;14326;50.794;6.060;2022-09-09T03:53:42;98867.44;;;16.00;100.00
26719;BME280;14326;50.794;6.060;2022-09-09T03:56:09;98861.94;;;16.06;100.00
26719;BME280;14326;50.794;6.060;2022-09-09T03:58:36;98860.16;;;16.05;100.00
26719;BME280;14326;50.794;6.060;2022-09-09T04:01:04;98858.22;;;16.10;100.00
26719;BME280;14326;50.794;6.060;2022-09-09T04:03:33;98865.41;;;16.10;100.00
26719;BME280;14326;50.794;6.060;2022-09-09T04:06:03;98852.91;;;16.09;100.00
26719;BME280;14326;50.794;6.060;2022-09-09T04:08:31;98853.72;;;16.12;100.00
26719;BME280;14326;50.794;6.060;2022-09-09T04:11:00;98855.50;;;16.13;100.00
26719;BME280;14326;50.794;6.060;2022-09-09T04:13:30;98858.19;;;16.13;100.00
26719;BME280;14326;50.794;6.060;2022-09-09T04:15:58;98846.59;;;16.11;100.00
26719;BME280;14326;50.794;6.060;2022-09-09T04:18:26;98855.38;;;16.18;100.00
26719;BME280;14326;50.794;6.060;2022-09-09T04:20:54;98850.88;;;16.18;100.00
26719;BME280;14326;50.794;6.060;2022-09-09T04:23:22;98846.44;;;16.17;100.00
26719;BME280;14326;50.794;6.060;2022-09-09T04:25:51;98845.50;;;16.18;100.00
26719;BME280;14326;50.794;6.060;2022-09-09T04:28:21;98846.34;;;16.20;100.00
26719;BME280;14326;50.794;6.060;2022-09-09T04:30:48;98850.94;;;16.15;100.00
26719;BME280;14326;50.794;6.060;2022-09-09T04:33:14;98855.41;;;16.16;100.00
26719;BME280;14326;50.794;6.060;2022-09-09T04:35:44;98856.25;;;16.18;100.00
26719;BME280;14326;50.794;6.060;2022-09-09T04:38:11;98854.47;;;16.17;100.00
26719;BME280;14326;50.794;6.060;2022-09-09T04:40:37;98857.13;;;16.19;100.00
26719;BME280;14326;50.794;6.060;2022-09-09T04:43:05;98857.13;;;16.19;100.00
26719;BME280;14326;50.794;6.060;2022-09-09T04:45:33;98861.63;;;16.18;100.00
26719;BME280;14326;50.794;6.060;2022-09-09T04:48:02;98850.88;;;16.18;100.00
26719;BME280;14326;50.794;6.060;2022-09-09T04:50:29;98858.06;;;16.16;100.00
26719;BME280;14326;50.794;6.060;2022-09-09T04:52:55;98859.91;;;16.14;100.00
26719;BME280;14326;50.794;6.060;2022-09-09T04:55:22;98855.56;;;16.10;100.00
26719;BME280;14326;50.794;6.060;2022-09-09T04:57:49;98866.16;;;16.15;100.00
26719;BME280;14326;50.794;6.060;2022-09-09T05:00:16;98864.56;;;16.08;100.00
26719;BME280;14326;50.794;6.060;2022-09-09T05:02:43;98863.69;;;16.07;100.00
26719;BME280;14326;50.794;6.060;2022-09-09T05:05:10;98869.13;;;16.04;100.00
26719;BME280;14326;50.794;6.060;2022-09-09T05:07:37;98865.63;;;16.02;100.00
26719;BME280;14326;50.794;6.060;2022-09-09T05:10:04;98864.72;;;16.02;100.00
26719;BME280;14326;50.794;6.060;2022-09-09T05:12:31;98866.53;;;16.01;100.00
26719;BME280;14326;50.794;6.060;2022-09-09T05:14:58;98867.28;;;16.06;100.00
26719;BME280;14326;50.794;6.060;2022-09-09T05:17:24;98870.03;;;16.03;100.00
26719;BME280;14326;50.794;6.060;2022-09-09T05:19:52;98868.19;;;16.05;99.24
26719;BME280;14326;50.794;6.060;2022-09-09T05:22:20;98867.50;;;15.97;99.95
26719;BME280;14326;50.794;6.060;2022-09-09T05:24:46;98864.78;;;15.98;99.65
26719;BME280;14326;50.794;6.060;2022-09-09T05:27:16;98872.81;;;16.00;99.64
26719;BME280;14326;50.794;6.060;2022-09-09T05:29:43;98876.41;;;15.99;99.54
26719;BME280;14326;50.794;6.060;2022-09-09T05:32:10;98865.63;;;16.02;99.80
26719;BME280;14326;50.794;6.060;2022-09-09T05:34:37;98869.09;;;16.06;99.25
26719;BME280;14326;50.794;6.060;2022-09-09T05:37:06;98861.00;;;16.07;98.86
26719;BME280;14326;50.794;6.060;2022-09-09T05:39:33;98861.84;;;16.09;99.07
26719;BME280;14326;50.794;6.060;2022-09-09T05:42:01;98860.03;;;16.10;98.94
26719;BME280;14326;50.794;6.060;2022-09-09T05:44:30;98862.75;;;16.08;98.97
26719;BME280;14326;50.794;6.060;2022-09-09T05:46:56;98865.41;;;16.10;98.11
26719;BME280;14326;50.794;6.060;2022-09-09T05:49:23;98866.28;;;16.10;98.11
26719;BME280;14326;50.794;6.060;2022-09-09T05:51:51;98860.03;;;16.10;98.52
26719;BME280;14326;50.794;6.060;2022-09-09T05:54:19;98860.16;;;16.05;98.65
26719;BME280;14326;50.794;6.060;2022-09-09T05:56:46;98860.25;;;16.02;98.06
26719;BME280;14326;50.794;6.060;2022-09-09T05:59:15;98856.63;;;16.03;97.82
26719;BME280;14326;50.794;6.060;2022-09-09T06:01:41;98848.63;;;16.02;97.11
26719;BME280;14326;50.794;6.060;2022-09-09T06:04:08;98848.63;;;16.02;97.02
26719;BME280;14326;50.794;6.060;2022-09-09T06:06:37;98859.41;;;15.98;97.48
26719;BME280;14326;50.794;6.060;2022-09-09T06:09:06;98857.50;;;16.04;97.08
26719;BME280;14326;50.794;6.060;2022-09-09T06:11:37;98860.16;;;16.05;96.28
26719;BME280;14326;50.794;6.060;2022-09-09T06:14:05;98852.09;;;16.05;96.49
26719;BME280;14326;50.794;6.060;2022-09-09T06:16:37;98851.97;;;16.10;95.52
26719;BME280;14326;50.794;6.060;2022-09-09T06:19:04;98866.28;;;16.10;95.13
26719;BME280;14326;50.794;6.060;2022-09-09T06:21:32;98865.28;;;16.14;95.24
26719;BME280;14326;50.794;6.060;2022-09-09T06:23:59;98864.28;;;16.20;95.41
26719;BME280;14326;50.794;6.060;2022-09-09T06:26:28;98861.41;;;16.26;95.04
26719;BME280;14326;50.794;6.060;2022-09-09T06:28:57;98854.94;;;16.33;95.16
26719;BME280;14326;50.794;6.060;2022-09-09T06:31:26;98862.72;;;16.44;93.58
26719;BME280;14326;50.794;6.060;2022-09-09T06:37:17;98855.66;;;16.73;91.38
26719;BME280;14326;50.794;6.060;2022-09-09T06:40:17;98856.91;;;17.24;88.98
26719;BME280;14326;50.794;6.060;2022-09-09T06:43:33;98849.53;;;17.87;86.11
26719;BME280;14326;50.794;6.060;2022-09-09T06:46:21;98848.41;;;18.47;81.56
26719;BME280;14326;50.794;6.060;2022-09-09T06:48:48;98846.00;;;19.37;78.54
26719;BME280;14326;50.794;6.060;2022-09-09T06:51:16;98845.44;;;19.28;76.53
26719;BME280;14326;50.794;6.060;2022-09-09T06:53:45;98852.25;;;19.14;76.79
26719;BME280;14326;50.794;6.060;2022-09-09T06:56:19;98848.34;;;19.23;77.99
26719;BME280;14326;50.794;6.060;2022-09-09T06:58:47;98844.44;;;18.84;77.09
26719;BME280;14326;50.794;6.060;2022-09-09T07:01:15;98851.53;;;18.61;79.93
26719;BME280;14326;50.794;6.060;2022-09-09T07:03:45;98852.41;;;18.35;79.78
26719;BME280;14326;50.794;6.060;2022-09-09T07:06:14;98857.50;;;18.18;80.81
26719;BME280;14326;50.794;6.060;2022-09-09T07:08:42;98865.41;;;17.96;82.74
26719;BME280;14326;50.794;6.060;2022-09-09T07:11:09;98864.75;;;17.88;82.23
26719;BME280;14326;50.794;6.060;2022-09-09T07:13:36;98861.50;;;17.79;83.36
26719;BME280;14326;50.794;6.060;2022-09-09T07:16:04;98857.66;;;17.86;83.76
26719;BME280;14326;50.794;6.060;2022-09-09T07:18:31;98858.25;;;17.95;83.39
26719;BME280;14326;50.794;6.060;2022-09-09T07:21:00;98865.44;;;17.95;83.57
26719;BME280;14326;50.794;6.060;2022-09-09T07:23:27;98862.81;;;17.93;82.78
26719;BME280;14326;50.794;6.060;2022-09-09T07:25:54;98869.41;;;17.83;82.74
26719;BME280;14326;50.794;6.060;2022-09-09T07:28:21;98863.19;;;17.81;82.36
26719;BME280;14326;50.794;6.060;2022-09-09T07:30:53;98874.06;;;17.78;83.35
26719;BME280;14326;50.794;6.060;2022-09-09T07:33:20;98862.47;;;17.76;82.85
26719;BME280;14326;50.794;6.060;2022-09-09T07:35:47;98867.28;;;17.67;82.89
26719;BME280;14326;50.794;6.060;2022-09-09T07:38:15;98866.44;;;17.65;83.44
26719;BME280;14326;50.794;6.060;2022-09-09T07:40:42;98864.63;;;17.65;83.65
26719;BME280;14326;50.794;6.060;2022-09-09T07:43:09;98863.63;;;17.68;84.19
26719;BME280;14326;50.794;6.060;2022-09-09T07:45:36;98868.88;;;17.72;83.73
26719;BME280;14326;50.794;6.060;2022-09-09T07:48:03;98866.13;;;17.74;83.55
26719;BME280;14326;50.794;6.060;2022-09-09T07:50:30;98873.31;;;17.73;83.74
26719;BME280;14326;50.794;6.060;2022-09-09T07:52:56;98876.94;;;17.72;83.95
26719;BME280;14326;50.794;6.060;2022-09-09T07:55:26;98876.00;;;17.73;84.30
26719;BME280;14326;50.794;6.060;2022-09-09T07:57:53;98875.88;;;17.78;82.50
26719;BME280;14326;50.794;6.060;2022-09-09T08:00:20;98877.53;;;17.82;82.77
26719;BME280;14326;50.794;6.060;2022-09-09T08:02:47;98884.88;;;17.77;82.23
26719;BME280;14326;50.794;6.060;2022-09-09T08:05:14;98868.72;;;17.77;82.58
26719;BME280;14326;50.794;6.060;2022-09-09T08:07:42;98871.19;;;17.84;81.65
26719;BME280;14326;50.794;6.060;2022-09-09T08:10:09;98876.59;;;18.37;80.17
26719;BME280;14326;50.794;6.060;2022-09-09T08:12:37;98878.47;;;18.86;77.42
26719;BME280;14326;50.794;6.060;2022-09-09T08:15:05;98879.41;;;19.33;74.20
26719;BME280;14326;50.794;6.060;2022-09-09T08:17:31;98888.59;;;19.28;75.05
26719;BME280;14326;50.794;6.060;2022-09-09T08:19:58;98891.03;;;19.10;73.60
26719;BME280;14326;50.794;6.060;2022-09-09T08:22:30;98882.38;;;19.02;74.17
26719;BME280;14326;50.794;6.060;2022-09-09T08:24:57;98888.31;;;19.12;73.72
26719;BME280;14326;50.794;6.060;2022-09-09T08:27:23;98890.06;;;19.13;75.62
26719;BME280;14326;50.794;6.060;2022-09-09T08:29:52;98902.84;;;19.08;74.80
26719;BME280;14326;50.794;6.060;2022-09-09T08:32:18;98891.50;;;18.98;74.29
26719;BME280;14326;50.794;6.060;2022-09-09T08:34:45;98895.56;;;18.85;76.76
26719;BME280;14326;50.794;6.060;2022-09-09T08:37:12;98905.59;;;18.81;75.66
26719;BME280;14326;50.794;6.060;2022-09-09T08:39:39;98903.88;;;19.04;75.34
26719;BME280;14326;50.794;6.060;2022-09-09T08:42:15;98905.97;;;19.44;74.06
26719;BME280;14326;50.794;6.060;2022-09-09T08:44:56;98890.34;;;19.53;71.72
26719;BME280;14326;50.794;6.060;2022-09-09T08:47:29;98888.06;;;20.10;71.00
26719;BME280;14326;50.794;6.060;2022-09-09T08:50:07;98894.16;;;20.38;69.66
26719;BME280;14326;50.794;6.060;2022-09-09T08:52:46;98884.84;;;20.65;68.85
26719;BME280;14326;50.794;6.060;2022-09-09T08:55:22;98892.69;;;20.71;66.29
26719;BME280;14326;50.794;6.060;2022-09-09T08:57:51;98900.84;;;20.70;66.71
26719;BME280;14326;50.794;6.060;2022-09-09T09:00:21;98887.81;;;20.79;66.72
26719;BME280;14326;50.794;6.060;2022-09-09T09:02:56;98884.56;;;20.92;67.21
26719;BME280;14326;50.794;6.060;2022-09-09T09:05:32;98889.94;;;20.73;66.05
26719;BME280;14326;50.794;6.060;2022-09-09T09:08:08;98898.56;;;20.61;66.73
26719;BME280;14326;50.794;6.060;2022-09-09T09:10:45;98908.34;;;20.63;65.79
26719;BME280;14326;50.794;6.060;2022-09-09T09:13:18;98900.69;;;20.53;65.77
26719;BME280;14326;50.794;6.060;2022-09-09T09:15:50;98897.06;;;20.74;66.67
26719;BME280;14326;50.794;6.060;2022-09-09T09:18:19;98904.88;;;21.02;66.79
26719;BME280;14326;50.794;6.060;2022-09-09T09:20:54;98902.44;;;21.16;65.08
26719;BME280;14326;50.794;6.060;2022-09-09T09:23:25;98891.69;;;20.94;63.31
26719;BME280;14326;50.794;6.060;2022-09-09T09:25:57;98899.66;;;20.77;64.71
26719;BME280;14326;50.794;6.060;2022-09-09T09:28:27;98900.31;;;20.82;64.58
26719;BME280;14326;50.794;6.060;2022-09-09T09:30:58;98888.03;;;20.95;63.36
26719;BME280;14326;50.794;6.060;2022-09-09T09:33:29;98891.94;;;21.29;64.75
26719;BME280;14326;50.794;6.060;2022-09-09T09:35:58;98894.31;;;21.16;62.64
26719;BME280;14326;50.794;6.060;2022-09-09T09:38:36;98906.19;;;21.12;63.05
26719;BME280;14326;50.794;6.060;2022-09-09T09:41:04;98899.78;;;21.35;64.64
26719;BME280;14326;50.794;6.060;2022-09-09T09:43:33;98906.94;;;21.36;62.39
26719;BME280;14326;50.794;6.060;2022-09-09T09:46:03;98903.97;;;21.21;62.30
26719;BME280;14326;50.794;6.060;2022-09-09T09:48:30;98912.63;;;21.09;64.01
26719;BME280;14326;50.794;6.060;2022-09-09T09:50:59;98904.78;;;20.83;64.44
26719;BME280;14326;50.794;6.060;2022-09-09T09:53:29;98912.59;;;20.69;65.46
26719;BME280;14326;50.794;6.060;2022-09-09T09:55:59;98919.50;;;20.56;65.57
26719;BME280;14326;50.794;6.060;2022-09-09T09:58:27;98924.97;;;20.32;65.42
26719;BME280;14326;50.794;6.060;2022-09-09T10:00:57;98920.91;;;20.21;65.57
26719;BME280;14326;50.794;6.060;2022-09-09T10:03:27;98918.91;;;20.04;66.62
26719;BME280;14326;50.794;6.060;2022-09-09T10:05:54;98921.84;;;19.98;66.57
26719;BME280;14326;50.794;6.060;2022-09-09T10:08:22;98931.06;;;19.92;67.03
26719;BME280;14326;50.794;6.060;2022-09-09T10:13:59;98941.97;;;19.43;72.60
26719;BME280;14326;50.794;6.060;2022-09-09T10:16:38;98950.69;;;19.26;73.50
26719;BME280;14326;50.794;6.060;2022-09-09T10:19:13;98939.47;;;19.13;75.62
26719;BME280;14326;50.794;6.060;2022-09-09T10:21:56;98935.81;;;19.14;76.67
26719;BME280;14326;50.794;6.060;2022-09-09T10:24:44;98928.38;;;19.21;76.83
26719;BME280;14326;50.794;6.060;2022-09-09T10:27:21;98922.06;;;19.22;76.99
26719;BME280;14326;50.794;6.060;2022-09-09T10:30:05;98925.81;;;19.18;77.30
26719;BME280;14326;50.794;6.060;2022-09-09T10:32:49;98922.84;;;19.26;77.70
26719;BME280;14326;50.794;6.060;2022-09-09T10:35:27;98934.63;;;19.23;77.57
26719;BME280;14326;50.794;6.060;2022-09-09T10:38:10;98931.97;;;19.21;78.81
26719;BME280;14326;50.794;6.060;2022-09-09T10:43:32;98935.91;;;19.13;79.51
26719;BME280;14326;50.794;6.060;2022-09-09T10:46:12;98939.69;;;19.07;79.78
26719;BME280;14326;50.794;6.060;2022-09-09T10:48:53;98938.88;;;19.05;81.93
26719;BME280;14326;50.794;6.060;2022-09-09T10:51:29;98940.19;;;18.94;86.05
26719;BME280;14326;50.794;6.060;2022-09-09T10:54:15;98936.50;;;18.96;86.97
26719;BME280;14326;50.794;6.060;2022-09-09T10:56:51;98929.84;;;18.81;86.25
26719;BME280;14326;50.794;6.060;2022-09-09T10:59:25;98935.06;;;18.86;85.41
26719;BME280;14326;50.794;6.060;2022-09-09T11:01:57;98924.78;;;18.97;88.13
26719;BME280;14326;50.794;6.060;2022-09-09T11:04:35;98922.94;;;19.22;85.20
26719;BME280;14326;50.794;6.060;2022-09-09T11:07:10;98931.47;;;19.35;82.09
26719;BME280;14326;50.794;6.060;2022-09-09T11:09:43;98918.53;;;19.68;79.32
26719;BME280;14326;50.794;6.060;2022-09-09T11:12:22;98920.00;;;19.77;78.41
26719;BME280;14326;50.794;6.060;2022-09-09T11:14:55;98933.97;;;19.88;76.91
26719;BME280;14326;50.794;6.060;2022-09-09T11:17:46;98930.31;;;19.89;76.30
26719;BME280;14326;50.794;6.060;2022-09-09T11:20:51;98940.34;;;20.09;76.33
26719;BME280;14326;50.794;6.060;2022-09-09T11:23:42;98929.94;;;19.98;75.13
26719;BME280;14326;50.794;6.060;2022-09-09T11:26:38;98924.53;;;19.98;75.80
26719;BME280;14326;50.794;6.060;2022-09-09T11:30:12;98926.00;;;19.85;74.77
26719;BME280;14326;50.794;6.060;2022-09-09T11:33:17;98930.97;;;19.95;74.58
26719;BME280;14326;50.794;6.060;2022-09-09T11:36:22;98931.31;;;19.86;75.51
26719;BME280;14326;50.794;6.060;2022-09-09T11:39:02;98925.28;;;19.80;76.43
26719;BME280;14326;50.794;6.060;2022-09-09T11:41:37;98933.16;;;19.62;76.68
26719;BME280;14326;50.794;6.060;2022-09-09T11:44:13;98940.78;;;19.51;76.61
26719;BME280;14326;50.794;6.060;2022-09-09T11:46:46;98936.47;;;19.21;77.36
26719;BME280;14326;50.794;6.060;2022-09-09T11:49:27;98938.38;;;19.19;78.65
26719;BME280;14326;50.794;6.060;2022-09-09T11:51:54;98933.91;;;19.18;79.50
26719;BME280;14326;50.794;6.060;2022-09-09T11:54:32;98927.38;;;19.25;78.27
26719;BME280;14326;50.794;6.060;2022-09-09T11:57:02;98931.66;;;19.31;79.15
26719;BME280;14326;50.794;6.060;2022-09-09T11:59:31;98933.34;;;19.33;77.95
26719;BME280;14326;50.794;6.060;2022-09-09T12:01:59;98931.25;;;19.41;77.84
26719;BME280;14326;50.794;6.060;2022-09-09T12:04:30;98928.63;;;19.38;78.66
26719;BME280;14326;50.794;6.060;2022-09-09T12:07:00;98931.03;;;19.47;78.96
26719;BME280;14326;50.794;6.060;2022-09-09T12:09:33;98923.69;;;19.51;77.96
26719;BME280;14326;50.794;6.060;2022-09-09T12:29:51;98915.25;;;20.70;72.30
26719;BME280;14326;50.794;6.060;2022-09-09T12:32:58;98916.25;;;20.68;73.78
26719;BME280;14326;50.794;6.060;2022-09-09T12:35:36;98924.34;;;20.48;73.38
26719;BME280;14326;50.794;6.060;2022-09-09T12:38:14;98920.44;;;20.33;78.92
26719;BME280;14326;50.794;6.060;2022-09-09T12:41:00;98927.50;;;19.92;82.65
26719;BME280;14326;50.794;6.060;2022-09-09T12:44:04;98918.66;;;19.65;85.63
26719;BME280;14326;50.794;6.060;2022-09-09T12:47:14;98914.22;;;19.39;87.44
26719;BME280;14326;50.794;6.060;2022-09-09T12:49:52;98914.81;;;19.24;87.49
26719;BME280;14326;50.794;6.060;2022-09-09T12:52:33;98908.63;;;19.20;90.08
26719;BME280;14326;50.794;6.060;2022-09-09T12:55:35;98900.91;;;19.35;92.42
26719;BME280;14326;50.794;6.060;2022-09-09T13:01:22;98893.00;;;19.55;88.91
26719;BME280;14326;50.794;6.060;2022-09-09T13:03:55;98896.81;;;19.94;87.67
26719;BME280;14326;50.794;6.060;2022-09-09T13:06:23;98899.56;;;19.93;85.13
26719;BME280;14326;50.794;6.060;2022-09-09T13:08:55;98891.16;;;20.22;87.82
26719;BME280;14326;50.794;6.060;2022-09-09T13:11:24;98887.38;;;20.26;80.74
26719;BME280;14326;50.794;6.060;2022-09-09T13:13:57;98879.56;;;20.20;80.14
26719;BME280;14326;50.794;6.060;2022-09-09T13:16:30;98878.97;;;20.34;79.94
26719;BME280;14326;50.794;6.060;2022-09-09T13:18:59;98874.84;;;20.25;78.37
26719;BME280;14326;50.794;6.060;2022-09-09T13:24:38;98876.34;;;19.89;77.85
26719;BME280;14326;50.794;6.060;2022-09-09T13:27:23;98874.19;;;19.75;77.70
26719;BME280;14326;50.794;6.060;2022-09-09T13:29:53;98874.38;;;19.71;79.66
26719;BME280;14326;50.794;6.060;2022-09-09T13:32:23;98879.06;;;19.66;82.74
26719;BME280;14326;50.794;6.060;2022-09-09T13:34:56;98871.03;;;19.41;82.98
26719;BME280;14326;50.794;6.060;2022-09-09T13:37:30;98885.81;;;19.31;83.36
26719;BME280;14326;50.794;6.060;2022-09-09T13:40:17;98887.94;;;19.44;86.87
26719;BME280;14326;50.794;6.060;2022-09-09T13:42:52;98885.34;;;19.66;87.73
26719;BME280;14326;50.794;6.060;2022-09-09T13:45:27;98880.66;;;19.93;85.12
26719;BME280;14326;50.794;6.060;2022-09-09T13:47:54;98875.59;;;20.07;84.13
26719;BME280;14326;50.794;6.060;2022-09-09T13:50:24;98871.16;;;20.26;84.58
26719;BME280;14326;50.794;6.060;2022-09-09T13:52:53;98872.34;;;20.42;83.15
26719;BME280;14326;50.794;6.060;2022-09-09T13:55:21;98868.84;;;20.61;82.17